Archival Weather

Chicago O'Hare International

Chicago, Illinois (KORD)

Report from: Saturday, August 6, 2022 2:51 AM CDT
Current time: Tuesday, August 16, 2022 1:13 AM CDT

Current weather
Weather history
Weather forecast

Temperature24.4°C (75.9°F)
Dew point21.7°C (71.1°F)
Winds 4 kts (2.1 m/s, 4.6 mph) South-Southwest (210°)
Visibility8 mi. (12.9 km)
Clouds Sky clear
Altimeter30.07 in.Hg (1018 mB)
Relative humidity85 %
Density altitude1,270 ft. (387 m)
Sea-level pressure101.8 kPa (1018 mB, 30.05 in.Hg)
Remarks Automated weather observing station with precipitation discriminator
Flight conditions Visual Meteorological Conditions
Raw dataKORD 060751Z 21004KT 8SM CLR 24/22 A3007 RMK AO2 SLP175 T02440217
An error has occurred. This application may no longer respond until reloaded. Reload 🗙